createdAt,value
2023-02-11T00:03:15.242Z,7.6
2023-02-11T00:08:15.220Z,7.6
2023-02-11T00:13:15.223Z,7.6
2023-02-11T00:18:15.231Z,7.5
2023-02-11T00:23:15.227Z,7.5
2023-02-11T00:28:15.299Z,7.5
2023-02-11T00:33:15.232Z,7.6
2023-02-11T00:38:15.237Z,7.5
2023-02-11T00:43:15.230Z,7.5
2023-02-11T00:48:15.232Z,7.5
2023-02-11T00:53:15.229Z,7.6
2023-02-11T00:58:15.246Z,7.6
2023-02-11T01:03:15.238Z,7.5
2023-02-11T01:08:15.250Z,7.5
2023-02-11T01:13:15.245Z,7.5
2023-02-11T01:18:15.257Z,7.5
2023-02-11T01:23:15.261Z,7.5
2023-02-11T01:28:15.273Z,7.5
2023-02-11T01:33:15.267Z,7.5
2023-02-11T01:38:15.269Z,7.5
2023-02-11T01:43:15.266Z,7.5
2023-02-11T01:48:15.271Z,7.5
2023-02-11T01:53:15.268Z,7.5
2023-02-11T01:58:15.281Z,7.4
2023-02-11T02:03:15.323Z,7.4
2023-02-11T02:08:15.282Z,7.4
2023-02-11T02:13:15.282Z,7.4
2023-02-11T02:18:15.280Z,7.4
2023-02-11T02:23:15.287Z,7.4
2023-02-11T02:28:15.320Z,7.4
2023-02-11T02:33:22.395Z,7.4
2023-02-11T02:38:15.322Z,7.3
2023-02-11T02:43:15.302Z,7.4
2023-02-11T02:48:15.296Z,7.4
2023-02-11T02:53:15.309Z,7.4
2023-02-11T02:58:15.302Z,7.4
2023-02-11T03:03:15.309Z,7.3
2023-02-11T03:08:15.315Z,7.3
2023-02-11T03:13:15.312Z,7.3
2023-02-11T03:18:15.311Z,7.2
2023-02-11T03:23:15.311Z,7.2
2023-02-11T03:28:15.370Z,7.1
2023-02-11T03:33:15.334Z,7.0
2023-02-11T03:38:15.322Z,7.0
2023-02-11T03:43:15.336Z,7.0
2023-02-11T03:48:15.333Z,7.0
2023-02-11T03:53:15.335Z,6.9
2023-02-11T03:58:15.334Z,6.9
2023-02-11T04:03:15.461Z,6.9
2023-02-11T04:08:15.365Z,6.9
2023-02-11T04:13:15.329Z,6.8
2023-02-11T04:18:15.348Z,6.8
2023-02-11T04:23:15.341Z,6.8
2023-02-11T04:28:15.365Z,6.8
2023-02-11T04:33:15.349Z,6.9
2023-02-11T04:38:15.391Z,6.9
2023-02-11T04:43:15.359Z,6.9
2023-02-11T04:48:15.405Z,7.0
2023-02-11T04:53:15.367Z,7.0
2023-02-11T04:58:15.360Z,7.0
2023-02-11T05:03:15.364Z,7.0
2023-02-11T05:08:15.369Z,7.1
2023-02-11T05:13:15.369Z,7.1
2023-02-11T05:18:15.383Z,7.1
2023-02-11T05:23:15.376Z,7.1
2023-02-11T05:28:15.425Z,7.2
2023-02-11T05:33:15.384Z,7.2
2023-02-11T05:38:15.401Z,7.2
2023-02-11T05:43:15.383Z,7.2
2023-02-11T05:48:15.388Z,7.2
2023-02-11T05:53:15.395Z,7.3
2023-02-11T05:58:15.395Z,7.3
2023-02-11T06:03:15.455Z,7.3
2023-02-11T06:08:15.421Z,7.3
2023-02-11T06:13:15.416Z,7.3
2023-02-11T06:18:15.406Z,7.3
2023-02-11T06:23:15.416Z,7.3
2023-02-11T06:28:15.499Z,7.4
2023-02-11T06:33:15.419Z,7.4
2023-02-11T06:38:15.415Z,7.4
2023-02-11T06:43:15.421Z,7.4
2023-02-11T06:48:15.434Z,7.4
2023-02-11T06:53:15.429Z,7.4
2023-02-11T06:58:15.436Z,7.4
2023-02-11T07:03:15.521Z,7.4
2023-02-11T07:08:15.452Z,7.4
2023-02-11T07:13:15.441Z,7.4
2023-02-11T07:18:15.445Z,7.4
2023-02-11T07:23:15.442Z,7.4
2023-02-11T07:28:15.447Z,7.5
2023-02-11T07:33:15.445Z,7.5
2023-02-11T07:38:15.444Z,7.5
2023-02-11T07:43:15.453Z,7.5
2023-02-11T07:53:15.455Z,7.6
2023-02-11T07:58:15.452Z,7.6
2023-02-11T08:03:15.469Z,7.7
2023-02-11T08:08:15.492Z,7.7
2023-02-11T08:13:15.460Z,7.7
2023-02-11T08:23:15.465Z,7.8
2023-02-11T08:28:15.563Z,7.8
2023-02-11T08:33:15.472Z,7.9
2023-02-11T08:38:15.479Z,7.9
2023-02-11T08:43:15.545Z,8.0
2023-02-11T08:48:15.483Z,8.0
2023-02-11T08:53:15.487Z,8.1
2023-02-11T08:58:18.099Z,8.2
2023-02-11T09:03:15.542Z,8.2
2023-02-11T09:08:15.504Z,8.3
2023-02-11T09:13:15.505Z,8.4
2023-02-11T09:18:15.507Z,8.4
2023-02-11T09:23:18.243Z,8.5
2023-02-11T09:28:15.626Z,8.6
2023-02-11T09:33:15.514Z,8.6
2023-02-11T09:38:15.510Z,8.7
2023-02-11T09:43:15.522Z,8.8
2023-02-11T09:48:15.516Z,8.8
2023-02-11T09:53:15.528Z,8.8
2023-02-11T09:58:15.528Z,8.9
2023-02-11T10:03:15.542Z,9.0
2023-02-11T10:08:17.050Z,9.1
2023-02-11T10:13:15.541Z,9.1
2023-02-11T10:18:15.548Z,9.2
2023-02-11T10:23:15.576Z,9.3
2023-02-11T10:28:15.700Z,9.3
2023-02-11T10:33:15.556Z,9.3
2023-02-11T10:38:15.577Z,9.3
2023-02-11T10:43:15.560Z,9.4
2023-02-11T10:48:16.523Z,9.4
2023-02-11T10:53:15.577Z,9.4
2023-02-11T10:58:15.565Z,9.4
2023-02-11T11:03:15.590Z,9.3
2023-02-11T11:08:15.581Z,9.4
2023-02-11T11:13:15.629Z,9.4
2023-02-11T11:18:22.047Z,9.5
2023-02-11T11:23:15.594Z,9.6
2023-02-11T11:28:15.609Z,9.7
2023-02-11T11:33:15.612Z,9.8
2023-02-11T11:38:15.593Z,10.0
2023-02-11T11:43:15.584Z,10.1
2023-02-11T11:48:15.592Z,10.2
2023-02-11T11:53:15.497Z,10.3
2023-02-11T11:58:15.641Z,10.2
2023-02-11T12:03:15.707Z,10.2
2023-02-11T12:08:15.601Z,10.3
2023-02-11T12:13:15.512Z,10.6
2023-02-11T12:18:15.557Z,10.8
2023-02-11T12:23:15.542Z,10.9
2023-02-11T12:28:15.582Z,11.0
2023-02-11T12:33:15.525Z,11.0
2023-02-11T12:38:15.532Z,11.1
2023-02-11T12:43:15.523Z,11.2
2023-02-11T12:48:15.547Z,11.2
2023-02-11T12:53:15.532Z,11.3
2023-02-11T12:58:15.546Z,11.4
2023-02-11T13:03:15.550Z,11.4
2023-02-11T13:08:15.552Z,11.6
2023-02-11T13:13:15.559Z,11.7
2023-02-11T13:18:18.101Z,11.8
2023-02-11T13:23:15.560Z,11.9
2023-02-11T13:28:15.589Z,12.0
2023-02-11T13:33:15.563Z,12.1
2023-02-11T13:38:15.574Z,12.1
2023-02-11T13:43:15.579Z,12.1
2023-02-11T13:48:15.573Z,12.2
2023-02-11T13:53:16.156Z,12.2
2023-02-11T13:58:15.590Z,12.1
2023-02-11T14:03:15.584Z,12.1
2023-02-11T14:08:15.581Z,12.2
2023-02-11T14:13:15.587Z,12.1
2023-02-11T14:18:15.587Z,12.1
2023-02-11T14:23:15.604Z,12.1
2023-02-11T14:28:15.641Z,12.1
2023-02-11T14:33:15.597Z,12.0
2023-02-11T14:38:15.603Z,11.9
2023-02-11T14:43:15.608Z,11.9
2023-02-11T14:48:15.616Z,11.8
2023-02-11T14:53:15.611Z,11.7
2023-02-11T14:58:15.646Z,11.7
2023-02-11T15:03:15.610Z,11.7
2023-02-11T15:08:15.619Z,11.7
2023-02-11T15:13:15.624Z,11.7
2023-02-11T15:18:15.623Z,11.6
2023-02-11T15:23:15.641Z,11.6
2023-02-11T15:28:15.694Z,11.6
2023-02-11T15:33:15.639Z,11.5
2023-02-11T15:38:15.634Z,11.5
2023-02-11T15:43:15.641Z,11.4
2023-02-11T15:48:15.649Z,11.4
2023-02-11T15:53:15.709Z,11.3
2023-02-11T15:58:15.650Z,11.2
2023-02-11T16:03:15.652Z,11.2
2023-02-11T16:08:15.649Z,11.1
2023-02-11T16:13:15.650Z,11.1
2023-02-11T16:18:15.654Z,11.0
2023-02-11T16:23:15.658Z,11.0
2023-02-11T16:28:15.725Z,10.9
2023-02-11T16:33:15.661Z,10.9
2023-02-11T16:38:15.663Z,10.8
2023-02-11T16:43:15.683Z,10.7
2023-02-11T16:48:15.677Z,10.7
2023-02-11T16:53:15.672Z,10.6
2023-02-11T16:58:15.682Z,10.6
2023-02-11T17:03:15.673Z,10.5
2023-02-11T17:08:15.678Z,10.5
2023-02-11T17:13:15.677Z,10.4
2023-02-11T17:18:15.676Z,10.3
2023-02-11T17:23:15.709Z,10.3
2023-02-11T17:28:15.710Z,10.3
2023-02-11T17:33:15.692Z,10.2
2023-02-11T17:38:15.682Z,10.1
2023-02-11T17:43:15.697Z,10.0
2023-02-11T17:48:15.698Z,9.9
2023-02-11T17:53:15.697Z,9.9
2023-02-11T17:58:15.712Z,9.8
2023-02-11T18:03:15.715Z,9.8
2023-02-11T18:08:15.803Z,9.7
2023-02-11T18:13:15.806Z,9.7
2023-02-11T18:18:15.810Z,9.6
2023-02-11T18:23:15.810Z,9.6
2023-02-11T18:28:15.839Z,9.5
2023-02-11T18:33:15.818Z,9.5
2023-02-11T18:38:15.826Z,9.5
2023-02-11T18:43:15.823Z,9.5
2023-02-11T18:48:15.836Z,9.5
2023-02-11T18:53:15.838Z,9.5
2023-02-11T18:58:15.845Z,9.5
2023-02-11T19:03:15.903Z,9.5
2023-02-11T19:08:15.835Z,9.5
2023-02-11T19:13:15.848Z,9.5
2023-02-11T19:18:15.857Z,9.5
2023-02-11T19:23:15.863Z,9.5
2023-02-11T19:28:15.952Z,9.5
2023-02-11T19:33:15.846Z,9.5
2023-02-11T19:38:15.855Z,9.5
2023-02-11T19:43:15.860Z,9.5
2023-02-11T19:48:15.856Z,9.5
2023-02-11T19:53:15.869Z,9.5
2023-02-11T19:58:15.920Z,9.5
2023-02-11T20:03:15.869Z,9.5
2023-02-11T20:08:15.883Z,9.5
2023-02-11T20:13:15.875Z,9.5
2023-02-11T20:18:15.886Z,9.6
2023-02-11T20:23:15.873Z,9.5
2023-02-11T20:28:16.001Z,9.5
2023-02-11T20:33:15.875Z,9.5
2023-02-11T20:38:15.883Z,9.5
2023-02-11T20:43:15.887Z,9.5
2023-02-11T20:48:15.889Z,9.5
2023-02-11T20:53:15.905Z,9.4
2023-02-11T20:58:15.895Z,9.4
2023-02-11T21:03:15.917Z,9.4
2023-02-11T21:08:15.911Z,9.4
2023-02-11T21:13:15.938Z,9.4
2023-02-11T21:18:15.909Z,9.4
2023-02-11T21:23:15.905Z,9.4
2023-02-11T21:28:15.989Z,9.4
2023-02-11T21:33:15.916Z,9.3
2023-02-11T21:38:15.923Z,9.3
2023-02-11T21:43:15.926Z,9.3
2023-02-11T21:48:15.946Z,9.3
2023-02-11T21:53:15.927Z,9.3
2023-02-11T21:58:15.933Z,9.3
2023-02-11T22:03:15.935Z,9.2
2023-02-11T22:08:17.998Z,9.2
2023-02-11T22:13:15.945Z,9.2
2023-02-11T22:18:15.944Z,9.2
2023-02-11T22:23:15.949Z,9.2
2023-02-11T22:28:16.146Z,9.2
2023-02-11T22:33:15.945Z,9.2
2023-02-11T22:38:15.949Z,9.1
2023-02-11T22:43:15.974Z,9.1
2023-02-11T22:48:16.203Z,9.1
2023-02-11T22:53:15.955Z,9.1
2023-02-11T22:58:15.956Z,9.1
2023-02-11T23:03:15.956Z,9.1
2023-02-11T23:08:15.951Z,9.1
2023-02-11T23:13:15.975Z,9.0
2023-02-11T23:18:15.962Z,9.1
2023-02-11T23:23:15.970Z,9.0
2023-02-11T23:28:16.047Z,9.0
2023-02-11T23:33:15.966Z,9.0
2023-02-11T23:38:15.980Z,9.0
2023-02-11T23:43:15.986Z,9.0
2023-02-11T23:48:15.994Z,9.0
2023-02-11T23:53:15.986Z,9.0
2023-02-11T23:58:16.000Z,9.0
